Latest Weather Observations for Dartmoor

IDV60801

Issued at 11:31 pm EST Sunday 1 May 2016 (issued every 30 minutes, with the page automatically refreshed every 10 minutes)

About weather observations | Map of weather stations | Latest weather observations for VIC | Other Formats
Station Details ID: 090194 Name: DARTMOOR Lat: -37.92 Lon: 141.26 Height: 51.0 m
Data from the previous 72 hours. | See also: Recent months at Dartmoor
Date/Time
EST
Temp
°C
App
Temp
°C
Dew
Point
Rel
Hum
%
Delta-T
°C
Wind Press
QNH
hPa
Press
MSL
hPa
Rain
since 9 am
mm
Dir
 
Spd
km/h
Gust
km/h
Spd
kts
Gust
kts
01/11:30pm 10.0 6.8 8.4 90 0.8 NNW 15 22 8 12 1014.6 1014.6 5.2
01/11:00pm 9.4 5.7 8.0 91 0.7 NNW 17 32 9 17 1015.0 1015.0 5.2
01/10:30pm 8.9 6.3 7.8 93 0.5 N 11 15 6 8 1015.2 1015.2 5.2
01/10:00pm 9.0 6.4 7.6 91 0.7 NNW 11 15 6 8 1015.4 1015.4 5.2
01/09:30pm 9.2 6.2 7.8 91 0.7 NW 13 20 7 11 1015.6 1015.6 5.2
01/09:00pm 8.4 6.5 6.9 90 0.7 NW 6 9 3 5 1015.4 1015.4 4.8
01/08:30pm 8.2 6.2 7.0 92 0.6 NNW 7 9 4 5 1015.3 1015.3 4.8
01/08:00pm 8.6 6.7 7.4 92 0.6 NNW 7 9 4 5 1015.3 1015.3 4.8
01/07:30pm 9.3 7.6 7.7 90 0.8 NNW 6 7 3 4 1015.2 1015.2 4.8
01/07:00pm 10.4 7.7 7.3 81 1.5 WNW 11 19 6 10 1015.5 1015.5 4.6
01/06:30pm 9.3 7.5 7.3 87 0.9 W 6 9 3 5 1014.8 1014.8 4.4
01/06:00pm 10.3 8.4 7.5 83 1.3 NW 7 9 4 5 1014.5 1014.5 4.4
01/05:30pm 11.8 9.4 7.1 73 2.3 W 9 13 5 7 1014.4 1014.4 4.4
01/05:00pm 12.2 10.5 8.5 78 1.8 W 7 11 4 6 1014.3 1014.3 4.4
01/04:30pm 12.1 10.2 8.9 81 1.6 WSW 9 17 5 9 1014.4 1014.4 4.4
01/04:00pm 11.9 7.0 8.6 80 1.6 W 24 52 13 28 1014.3 1014.3 4.4
01/03:30pm 14.0 9.6 6.4 60 3.7 W 19 33 10 18 1013.6 1013.6 4.0
01/03:00pm 14.2 9.5 6.1 58 3.9 WSW 20 37 11 20 1013.1 1013.1 4.0
01/02:30pm 12.4 8.7 8.1 75 2.1 WSW 17 28 9 15 1013.0 1013.0 4.0
01/02:00pm 14.7 10.0 6.0 56 4.2 W 20 30 11 16 1012.6 1012.6 4.0
01/01:30pm 13.5 7.7 6.4 62 3.4 W 26 41 14 22 1012.5 1012.5 4.0
01/01:00pm 14.6 8.8 6.4 58 4.0 WSW 26 39 14 21 1012.3 1012.3 4.0
01/12:30pm 14.3 9.2 7.8 65 3.2 WSW 24 41 13 22 1012.1 1012.1 4.0
01/12:00pm 13.3 10.0 9.7 79 1.8 W 17 26 9 14 1012.0 1012.0 4.0
01/11:30am 12.0 8.5 8.7 80 1.6 NW 17 24 9 13 1011.7 1011.7 4.0
01/11:00am 9.6 6.7 8.0 90 0.8 WNW 13 19 7 10 1011.7 1011.7 4.0
01/10:30am 9.6 5.3 8.0 90 0.8 WNW 20 35 11 19 1011.3 1011.3 2.6
01/10:00am 10.1 7.4 9.0 93 0.5 NW 13 19 7 10 1010.6 1010.6 1.8
01/09:30am 10.1 6.7 9.0 93 0.5 WNW 17 32 9 17 1010.4 1010.3 1.2
01/09:00am 10.8 8.7 9.9 94 0.5 NW 11 17 6 9 1009.1 1009.0 15.6
01/08:30am 9.6 7.6 8.7 94 0.4 W 9 17 5 9 1008.5 1008.4 15.6
01/08:00am 9.4 5.3 8.5 94 0.4 W 20 44 11 24 1008.5 1008.4 14.8
01/07:30am 9.4 6.6 8.5 94 0.4 WNW 13 22 7 12 1007.5 1007.5 12.8
01/07:00am 9.7 4.8 8.5 92 0.6 WNW 24 43 13 23 1006.7 1006.7 10.2
01/06:30am 10.9 8.9 10.1 95 0.4 NW 11 24 6 13 1005.5 1005.5 5.4
01/06:00am 10.8 8.4 10.0 95 0.4 NNW 13 19 7 10 1004.7 1004.7 4.6
01/05:30am 10.7 9.0 9.9 95 0.4 NW 9 13 5 7 1004.5 1004.5 4.6
01/05:00am 11.1 8.8 10.3 95 0.4 WNW 13 17 7 9 1003.9 1003.9 4.6
01/04:30am 11.2 7.5 10.3 94 0.5 WNW 20 30 11 16 1003.4 1003.4 4.6
01/04:00am 11.5 7.9 10.4 93 0.6 WNW 20 30 11 16 1002.6 1002.6 2.6
01/03:30am 12.1 7.7 10.5 90 0.8 NW 24 41 13 22 1002.3 1002.3 2.2
01/03:00am 12.4 8.6 11.0 91 0.7 NW 22 35 12 19 1002.1 1002.1 2.0
01/02:30am 13.6 9.8 9.8 78 2.0 WNW 20 33 11 18 1002.0 1002.0 0.2
01/02:00am 14.3 9.1 10.1 76 2.2 WNW 28 56 15 30 1002.1 1002.1 0.2
01/01:30am 17.2 10.9 9.6 61 4.0 NW 33 54 18 29 1000.6 1000.6 0.2
01/01:10am 17.8 12.2 8.6 55 4.8 NNW 28 46 15 25 1000.8 1000.8 0.2
01/01:00am 17.4 12.7 9.1 58 4.3 NNW 24 39 13 21 1000.9 1000.9 0.2
01/12:30am 17.7 12.9 8.8 56 4.6 NNW 24 43 13 23 1001.5 1001.5 0.2
01/12:00am 17.4 14.0 9.1 58 4.3 NNW 17 26 9 14 1001.6 1001.6 0.2
 
Date/Time
EST
Temp
°C
App
Temp
°C
Dew
Point
Rel
Hum
%
Delta-T
°C
Wind Press
QNH
hPa
Press
MSL
hPa
Rain
since 9 am
mm
Dir
 
Spd
km/h
Gust
km/h
Spd
kts
Gust
kts
30/11:30pm 17.3 13.5 9.0 58 4.3 NNW 19 28 10 15 1002.0 1002.0 0.2
30/11:00pm 18.5 14.4 8.5 52 5.2 N 20 30 11 16 1002.0 1002.0 0.2
30/10:30pm 17.8 15.2 9.2 57 4.5 N 13 19 7 10 1002.6 1002.6 0.2
30/10:00pm 16.8 14.9 9.2 61 4.0 NNE 9 13 5 7 1003.4 1003.4 0.2
30/09:30pm 16.6 15.0 8.8 60 4.0 NNE 7 9 4 5 1003.7 1003.7 0.2
30/09:00pm 16.4 14.5 8.9 61 3.9 N 9 11 5 6 1004.5 1004.5 0.2
30/08:30pm 16.5 14.1 8.7 60 4.0 N 11 13 6 7 1005.0 1005.0 0.2
30/08:00pm 18.3 16.7 8.6 53 5.0 NNE 7 11 4 6 1005.0 1005.0 0.2
30/07:30pm 18.1 16.1 8.7 54 4.9 NNE 9 15 5 8 1005.3 1005.3 0.2
30/07:00pm 18.3 16.6 8.3 52 5.2 NNE 7 9 4 5 1005.6 1005.6 0.2
30/06:30pm 19.2 17.5 8.5 50 5.6 NNE 7 11 4 6 1005.5 1005.5 0.2
30/06:00pm 19.7 17.6 8.4 48 5.9 N 9 13 5 7 1005.5 1005.5 0.2
30/05:30pm 20.4 17.6 8.7 47 6.2 N 13 19 7 10 1005.8 1005.8 0.2
30/05:00pm 21.4 17.5 8.7 44 6.7 N 19 28 10 15 1006.1 1006.1 0.2
30/04:30pm 21.8 17.4 9.0 44 6.8 NNW 22 33 12 18 1006.6 1006.6 0.2
30/04:00pm 21.9 16.7 8.8 43 7.0 NNW 26 33 14 18 1006.9 1006.9 0.2
30/03:30pm 22.0 16.1 9.2 44 6.9 NNW 30 43 16 23 1007.2 1007.2 0.2
30/03:00pm 22.1 16.7 9.6 45 6.8 NNW 28 44 15 24 1007.3 1007.3 0.2
30/02:30pm 21.8 15.6 9.3 45 6.7 NNW 32 48 17 26 1007.6 1007.6 0.2
30/02:24pm 21.8 16.3 9.3 45 6.7 NNW 28 48 15 26 1007.6 1007.6 0.2
30/02:00pm 22.1 16.5 10.3 47 6.5 NW 30 46 16 25 1008.3 1008.2 0.2
30/01:53pm 21.8 16.3 9.0 44 6.8 NNW 28 46 15 25 1008.4 1008.3 0.2
30/01:30pm 21.4 16.0 9.6 47 6.3 NNW 28 43 15 23 1008.7 1008.6 0.2
30/01:00pm 21.4 16.6 10.3 49 6.1 NNW 26 33 14 18 1009.2 1009.1 0.2
30/12:30pm 20.7 15.9 10.2 51 5.7 NNW 26 41 14 22 1009.8 1009.7 0.2
30/12:00pm 19.7 15.2 11.5 59 4.5 N 26 41 14 22 1010.4 1010.3 0.2
30/11:30am 19.4 15.4 11.9 62 4.2 NNW 24 35 13 19 1010.8 1010.7 0.0
30/11:00am 18.5 13.6 12.7 69 3.3 NNW 30 44 16 24 1011.1 1011.0 0.0
30/10:30am 18.2 15.0 13.1 72 2.9 NNW 22 33 12 18 1011.1 1011.0 0.0
30/10:00am 17.3 14.0 12.8 75 2.5 NNW 22 35 12 19 1011.2 1011.1 0.0
30/09:30am 16.4 13.8 13.1 81 1.8 N 19 28 10 15 1011.4 1011.3 0.0
30/09:00am 15.4 12.9 13.6 89 1.0 N 19 28 10 15 1011.7 1011.6 4.6
30/08:30am 14.3 12.8 13.2 93 0.6 N 13 20 7 11 1011.6 1011.5 4.6
30/08:00am 13.4 11.8 12.8 96 0.3 N 13 19 7 10 1011.7 1011.6 4.6
30/07:30am 12.9 11.9 12.3 96 0.3 N 9 15 5 8 1011.4 1011.3 4.6
30/07:00am 13.1 11.8 12.5 96 0.3 N 11 15 6 8 1011.0 1010.9 4.6
30/06:30am 13.2 11.5 12.4 95 0.4 N 13 19 7 10 1011.0 1010.9 4.6
30/06:00am 13.4 11.8 12.8 96 0.3 N 13 19 7 10 1011.0 1010.9 4.6
30/05:30am 13.2 11.9 12.6 96 0.3 N 11 15 6 8 1011.1 1011.0 4.6
30/05:00am 13.4 12.2 12.8 96 0.3 N 11 17 6 9 1010.9 1010.8 4.6
30/04:30am 13.7 12.2 13.1 96 0.3 N 13 19 7 10 1010.6 1010.5 4.6
30/04:00am 13.7 11.8 12.9 95 0.4 N 15 19 8 10 1010.7 1010.6 4.6
30/03:30am 13.7 12.1 12.9 95 0.4 N 13 20 7 11 1010.7 1010.6 4.6
30/03:00am 13.7 11.8 12.9 95 0.4 N 15 17 8 9 1010.8 1010.7 4.6
30/02:30am 13.6 12.1 13.0 96 0.3 N 13 15 7 8 1011.0 1010.9 4.6
30/02:00am 13.5 12.7 12.9 96 0.3 N 9 13 5 7 1011.2 1011.1 4.6
30/01:30am 13.6 12.8 13.0 96 0.3 N 9 13 5 7 1011.3 1011.2 4.6
30/01:00am 13.5 12.7 12.9 96 0.3 N 9 15 5 8 1011.4 1011.3 4.4
30/12:30am 13.3 12.8 12.7 96 0.3 N 7 9 4 5 1011.5 1011.4 4.4
30/12:00am 13.1 12.7 12.5 96 0.3 NNE 6 7 3 4 1011.6 1011.5 4.4
 
Date/Time
EST
Temp
°C
App
Temp
°C
Dew
Point
Rel
Hum
%
Delta-T
°C
Wind Press
QNH
hPa
Press
MSL
hPa
Rain
since 9 am
mm
Dir
 
Spd
km/h
Gust
km/h
Spd
kts
Gust
kts
29/11:30pm 13.4 12.9 12.6 95 0.4 N 7 9 4 5 1011.9 1011.8 4.4
29/11:00pm 13.4 12.9 12.6 95 0.4 N 7 11 4 6 1012.3 1012.2 4.4
29/10:30pm 13.7 13.3 12.9 95 0.4 NNE 7 11 4 6 1012.4 1012.3 4.4
29/10:00pm 13.9 13.5 13.1 95 0.4 NNE 7 9 4 5 1012.7 1012.6 4.4
29/09:30pm 14.0 13.3 13.1 94 0.5 N 9 11 5 6 1012.6 1012.5 4.4
29/09:00pm 14.4 13.7 13.3 93 0.6 N 9 13 5 7 1012.4 1012.3 4.4
29/08:30pm 14.6 13.9 13.3 92 0.7 N 9 13 5 7 1012.1 1012.0 4.4
29/08:00pm 14.9 14.0 13.6 92 0.7 N 11 13 6 7 1011.9 1011.8 4.4
29/07:30pm 15.3 14.8 13.7 90 0.9 N 9 15 5 8 1012.0 1011.9 4.4
29/07:00pm 15.7 15.2 13.9 89 1.0 N 9 15 5 8 1011.9 1011.8 4.4
29/06:30pm 15.8 15.2 13.6 87 1.2 N 9 13 5 7 1011.9 1011.8 4.4
29/06:00pm 16.6 16.1 13.7 83 1.6 N 9 13 5 7 1011.4 1011.3 4.4
29/05:30pm 17.5 16.5 13.4 77 2.3 N 11 15 6 8 1011.2 1011.1 4.4
29/05:00pm 18.2 16.8 13.3 73 2.8 NNW 13 17 7 9 1011.0 1010.9 4.4
29/04:30pm 18.8 17.2 13.9 73 2.8 NNW 15 22 8 12 1011.0 1010.9 4.4
29/04:00pm 18.6 16.7 14.3 76 2.5 N 17 22 9 12 1010.9 1010.8 4.4
29/03:30pm 18.7 16.7 14.0 74 2.7 NW 17 24 9 13 1010.9 1010.8 4.4
29/03:00pm 18.1 15.9 14.4 79 2.1 NNW 19 30 10 16 1010.7 1010.6 4.4
29/02:30pm 18.0 16.2 14.5 80 2.0 NNW 17 28 9 15 1010.5 1010.4 4.4
29/02:00pm 17.0 15.1 14.3 84 1.5 N 17 24 9 13 1010.6 1010.5 4.4
29/01:30pm 16.0 13.6 13.8 87 1.2 NNW 19 28 10 15 1010.8 1010.7 4.4
29/01:00pm 15.9 14.6 14.8 93 0.6 N 15 24 8 13 1011.1 1011.0 4.4
29/12:30pm 15.4 14.3 14.4 94 0.6 N 13 24 7 13 1011.1 1011.0 4.4
29/12:00pm 15.2 13.3 14.2 94 0.6 N 17 24 9 13 1011.2 1011.1 4.4
29/11:30am 15.1 13.6 14.1 94 0.6 N 15 24 8 13 1011.7 1011.6 4.2
29/11:00am 15.2 13.7 14.2 94 0.6 N 15 24 8 13 1012.1 1012.0 2.8
29/10:30am 15.3 13.8 14.3 94 0.6 N 15 22 8 12 1012.0 1011.9 1.6
29/10:00am 15.5 14.4 14.4 93 0.6 N 13 20 7 11 1012.2 1012.1 0.8
29/09:30am 15.6 13.7 14.1 91 0.9 N 17 24 9 13 1012.4 1012.3 0.4
29/09:00am 15.8 13.8 14.0 89 1.0 N 17 28 9 15 1012.3 1012.2 6.0
29/08:30am 16.2 13.7 13.5 84 1.5 NNW 19 28 10 15 1012.2 1012.1 5.8
29/08:00am 16.3 13.8 13.4 83 1.6 N 19 32 10 17 1011.8 1011.7 5.8
29/07:30am 16.6 13.7 12.9 79 2.1 N 20 32 11 17 1011.8 1011.7 5.8
29/07:00am 16.8 13.8 12.5 76 2.4 N 20 35 11 19 1011.7 1011.6 5.6
29/06:30am 16.4 13.6 13.1 81 1.8 N 20 30 11 16 1011.6 1011.5 5.6
29/06:00am 17.3 13.9 12.6 74 2.6 N 22 35 12 19 1012.0 1011.9 5.4
29/05:30am 18.3 14.9 11.1 63 3.9 N 20 30 11 16 1011.9 1011.8 5.4
29/05:00am 17.6 14.8 11.4 67 3.4 N 17 28 9 15 1012.2 1012.1 5.4
29/04:30am 15.8 15.4 13.1 84 1.5 NNW 7 13 4 7 1012.2 1012.1 5.4
29/04:00am 16.4 15.2 12.9 80 1.9 NW 11 15 6 8 1012.2 1012.1 5.4
29/03:30am 18.2 15.8 11.5 65 3.7 NNE 15 22 8 12 1010.7 1010.6 5.2
29/03:00am 17.9 15.7 12.1 69 3.2 NNE 15 24 8 13 1010.7 1010.6 5.2
29/02:30am 17.1 15.1 12.8 76 2.4 NNE 15 22 8 12 1010.9 1010.8 5.2
29/02:00am 16.8 14.2 13.3 80 2.0 NE 19 24 10 13 1011.2 1011.1 5.2
29/01:30am 15.7 14.9 14.1 90 0.9 NE 11 15 6 8 1012.0 1011.9 5.2
29/01:00am 15.6 15.9 14.5 93 0.6 ENE 6 11 3 6 1012.5 1012.4 5.2
29/12:30am 15.8 15.9 14.5 92 0.7 NE 7 11 4 6 1013.0 1013.0 5.2
29/12:00am 15.7 15.5 14.7 94 0.6 NNW 9 13 5 7 1014.2 1014.2 5.2

Other Formats:

Comma delimited format used in spreadsheet applications
http://www.bom.gov.au/fwo/IDV60801/IDV60801.95822.axf

JavaScript Object Notation format (JSON) in row-major order
http://www.bom.gov.au/fwo/IDV60801/IDV60801.95822.json